KGED/GED METAR and TAF weather

Enter ICAO airport designator
Station Type Date Time Source
KGED METAR 2020/01/27 16:54 UTC NOAA

KGED 271654Z AUTO 30009KT 10SM OVC043 09/M01 A2978 RMK AO2 SLP085 T00891011 $


Station Type Date Time Source
KGED Decoded METAR 2020/01/27 16:54 UTC NOAA

GEORGETOWN SUSSEX CO AIRPORT , DE, United States (KGED) 38-41N 075-22W 19M
Jan 27, 2020 - 11:54 AM EST / 2020.01.27 1654 UTC
Wind: from the WNW (300 degrees) at 10 MPH (9 KT):0
Visibility: 10 mile(s):0
Sky conditions: overcast
Temperature: 48.0 F (8.9 C)
Dew Point: 30.0 F (-1.1 C)
Relative Humidity: 49%
Pressure (altimeter): 29.78 in. Hg (1008 hPa)
ob: KGED 271654Z AUTO 30009KT 10SM OVC043 09/M01 A2978 RMK AO2 SLP085 T00891011
cycle: 17

Station Type Date Time Source
KGED TAF UTC NOAA

Error!

Example: see airport list